Last 7 Days

Kelseyville

Hourly Data | America/Los_Angeles
as of 5/10/26 1:23 PM PDT
Date & Time Temp (°F) RH (%) Dew Pt (°F) Wet Bulb (°F) Wind Dir (°) Wind Spd (mph) Wind Gust (mph) Leaf Wet (mins) Solar Rad (W/m2) ETo Hr (In) BatVolt (V) Latest Rain (In) Max Rain Intensity (In/Hr) Precip 24Hr (In) Storm Total (In) Daily Rain (In) Daily Min Temp (°F) Daily Max Temp (°F) Daily Leaf Wet (Hrs) Daily ETo (in)
5/10/26 - 1300 81.6 38 53.4 62.8 NNE | 14 5.0 9.9 0.0 961 0.028 12.9 0.00 - - - 0.00 45.6 83.7 0.0 0.101
5/10/26 - 1200 77.9 43 53.3 62.0 NE | 42 5.3 9.2 0.0 894 0.025 12.9 0.00 - - - 0.00 45.6 80.4 0.0 0.073
5/10/26 - 1100 73.9 51 54.6 61.9 NE | 37 3.6 7.7 0.0 770 0.020 12.9 0.00 - - - 0.00 45.6 75.8 0.0 0.048
5/10/26 - 1000 70.4 55 53.6 60.4 NE | 42 1.8 6.6 0.0 611 0.015 12.9 0.00 - - - 0.00 45.6 72.6 0.0 0.027
5/10/26 - 0900 63.7 66 52.0 57.4 SW | 218 1.5 4.4 0.0 409 0.009 13.0 0.00 - - - 0.00 45.6 68.5 0.0 0.012
5/10/26 - 0800 54.9 78 48.0 51.8 S | 176 2.1 5.3 0.0 219 0.003 12.4 0.00 - - - 0.00 45.6 59.5 0.0 0.003
5/10/26 - 0700 46.6 89 43.6 45.6 SSW | 213 0.6 2.2 0.0 52 0.000 12.3 0.00 - - - 0.00 45.6 52.3 0.0 0.000
5/10/26 - 0600 46.1 87 42.6 44.8 SSW | 200 0.9 2.6 0.0 1 0.000 12.3 0.00 - - - 0.00 45.6 52.3 0.0 0.000
5/10/26 - 0500 47.1 86 43.2 45.6 S | 179 0.9 2.2 0.0 0 0.000 12.3 0.00 - - - 0.00 45.8 52.3 0.0 0.000
5/10/26 - 0400 48.7 83 43.8 46.7 SW | 220 1.6 2.8 0.0 0 0.000 12.3 0.00 - - - 0.00 47.8 52.3 0.0 0.000
5/10/26 - 0300 50.2 80 44.3 47.7 SSW | 208 1.0 3.3 0.0 0 0.000 12.3 0.00 - - - 0.00 48.8 52.3 0.0 0.000
5/10/26 - 0200 51.6 77 44.7 48.5 S | 190 0.8 2.6 0.0 0 0.000 12.3 0.00 - - - 0.00 50.7 52.3 0.0 0.000
5/10/26 - 0100 53.2 74 45.2 49.5 S | 191 0.9 2.2 0.0 0 0.000 12.3 0.00 - - - 0.00 45.0 88.2 0.0 0.234
5/10/26 - 0000 55.8 69 45.8 51.0 S | 188 0.8 2.2 0.0 0 0.000 12.3 0.00 - - - 0.00 45.0 88.2 0.0 0.234
5/9/26 - 2300 60.6 61 46.9 53.4 S | 180 1.2 3.9 0.0 0 0.000 12.4 0.00 - - - 0.00 45.0 88.2 0.0 0.234
5/9/26 - 2200 64.7 54 47.5 55.2 S | 170 2.6 5.0 0.0 0 0.000 12.4 0.00 - - - 0.00 45.0 88.2 0.0 0.234
5/9/26 - 2100 68.2 51 49.4 57.3 S | 173 2.4 5.3 0.0 3 0.000 12.4 0.00 - - - 0.00 45.0 88.2 0.0 0.234
5/9/26 - 2000 76.8 32 44.2 57.2 W | 266 5.0 13.8 0.0 85 0.004 12.4 0.00 - - - 0.00 45.0 88.2 0.0 0.234
5/9/26 - 1900 82.1 27 44.4 58.4 WNW | 285 7.1 14.9 0.0 269 0.012 12.9 0.00 - - - 0.00 45.0 88.2 0.0 0.230
5/9/26 - 1800 85.2 32 52.1 62.8 W | 264 6.7 12.9 0.0 459 0.017 12.9 0.00 - - - 0.00 45.0 88.2 0.0 0.218
5/9/26 - 1700 86.5 32 53.3 63.6 WSW | 245 7.2 15.3 0.0 644 0.022 12.8 0.00 - - - 0.00 45.0 88.2 0.0 0.201
5/9/26 - 1600 87.5 31 53.3 63.7 WSW | 249 6.4 13.4 0.0 784 0.026 12.8 0.00 - - - 0.00 45.0 88.2 0.0 0.179
5/9/26 - 1500 86.8 31 52.6 63.2 WSW | 255 4.9 11.4 0.0 901 0.028 12.8 0.00 - - - 0.00 45.0 88.0 0.0 0.153
5/9/26 - 1400 83.6 37 54.4 63.7 NNW | 334 4.1 9.9 0.0 954 0.028 12.9 0.00 - - - 0.00 45.0 87.3 0.0 0.125
5/9/26 - 1300 80.1 42 54.7 63.3 NNE | 12 4.7 9.4 0.0 943 0.027 12.9 0.00 - - - 0.00 45.0 81.6 0.0 0.096
5/9/26 - 1200 75.9 45 53.1 61.4 NNE | 17 3.4 8.3 0.0 881 0.024 12.9 0.00 - - - 0.00 45.0 78.2 0.0 0.069
5/9/26 - 1100 71.3 51 52.1 59.8 N | 4 3.4 7.2 0.0 763 0.020 12.9 0.00 - - - 0.00 45.0 73.3 0.0 0.045
5/9/26 - 1000 66.9 58 51.5 58.2 N | 0 2.2 7.2 0.0 584 0.014 12.9 0.00 - - - 0.00 45.0 69.2 0.0 0.025
5/9/26 - 0900 61.8 62 48.7 54.8 NW | 323 1.1 3.5 0.0 410 0.008 13.0 0.00 - - - 0.00 45.0 64.5 0.0 0.011
5/9/26 - 0800 54.0 76 46.5 50.5 WSW | 243 0.7 3.1 0.0 212 0.003 12.4 0.00 - - - 0.00 45.0 58.0 0.0 0.003
5/9/26 - 0700 46.2 91 43.6 45.4 SSW | 195 0.5 2.2 0.0 51 0.000 12.3 0.00 - - - 0.00 45.0 50.6 0.0 0.000
5/9/26 - 0600 46.1 89 43.1 45.0 SW | 221 0.7 2.4 0.0 0 0.000 12.3 0.00 - - - 0.00 45.2 50.6 0.0 0.000
5/9/26 - 0500 47.7 88 44.3 46.4 S | 185 1.1 4.2 0.0 0 0.000 12.3 0.00 - - - 0.00 46.8 50.6 0.0 0.000
5/9/26 - 0400 47.6 87 43.9 46.2 WSW | 238 0.7 2.2 0.0 0 0.000 12.3 0.00 - - - 0.00 47.1 50.6 0.0 0.000
5/9/26 - 0300 48.5 85 44.2 46.8 SSW | 195 0.7 2.4 0.0 0 0.000 12.3 0.00 - - - 0.00 47.5 50.6 0.0 0.000
5/9/26 - 0200 49.6 82 44.5 47.5 SSW | 198 1.0 3.1 0.0 0 0.000 12.3 0.00 - - - 0.00 48.6 50.6 0.0 0.000
5/9/26 - 0100 51.6 77 44.5 48.4 SSW | 199 1.1 2.6 0.0 0 0.000 12.3 0.00 - - - 0.00 41.6 84.0 5.9 0.221
5/9/26 - 0000 54.0 72 45.1 49.8 WSW | 246 0.4 2.2 0.0 0 0.000 12.3 0.00 - - - 0.00 41.6 84.0 5.9 0.221
5/8/26 - 2300 57.5 63 45.1 51.2 S | 180 1.0 3.5 0.0 0 0.000 12.3 0.00 - - - 0.00 41.6 84.0 5.9 0.221
5/8/26 - 2200 61.3 56 45.7 53.0 S | 175 2.3 4.2 0.0 0 0.000 12.4 0.00 - - - 0.00 41.6 84.0 5.9 0.221
5/8/26 - 2100 65.4 53 47.8 55.6 S | 181 2.5 4.8 0.0 3 0.000 12.4 0.00 - - - 0.00 41.6 84.0 5.9 0.221
5/8/26 - 2000 72.8 43 48.7 58.3 WSW | 243 3.6 7.7 0.0 81 0.002 12.4 0.00 - - - 0.00 41.6 84.0 5.9 0.221
5/8/26 - 1900 77.9 35 48.1 59.2 W | 261 5.7 11.0 0.0 259 0.009 13.0 0.00 - - - 0.00 41.6 84.0 5.9 0.218
5/8/26 - 1800 80.8 32 48.3 60.0 W | 272 6.4 12.5 0.0 459 0.016 12.9 0.00 - - - 0.00 41.6 84.0 5.9 0.209
5/8/26 - 1700 82.1 31 48.9 60.5 WSW | 246 7.3 15.3 0.0 649 0.022 12.9 0.00 - - - 0.00 41.6 84.0 5.9 0.194
5/8/26 - 1600 83.2 31 49.6 61.1 W | 262 6.1 13.8 0.0 802 0.025 12.9 0.00 - - - 0.00 41.6 84.0 5.9 0.172
5/8/26 - 1500 81.0 35 50.9 61.3 N | 357 5.5 18.0 0.0 887 0.027 12.9 0.00 - - - 0.00 41.6 83.7 5.9 0.147
5/8/26 - 1400 79.2 35 48.8 60.0 NNE | 16 3.4 10.5 0.0 954 0.027 12.9 0.00 - - - 0.00 41.6 81.0 5.9 0.120
5/8/26 - 1300 75.5 45 52.5 61.0 NNE | 24 3.6 9.2 0.0 969 0.026 13.0 0.00 - - - 0.00 41.6 77.5 5.9 0.093
5/8/26 - 1200 70.7 53 52.5 59.8 N | 6 4.5 8.1 0.0 896 0.023 13.0 0.00 - - - 0.00 41.6 73.4 5.9 0.067
5/8/26 - 1100 67.5 58 52.2 58.8 N | 8 4.6 10.1 0.0 760 0.019 13.0 0.00 - - - 0.00 41.6 68.6 5.9 0.044
5/8/26 - 1000 64.4 57 49.0 55.9 WSW | 244 1.5 5.0 0.0 610 0.014 12.9 0.00 - - - 0.00 41.6 67.2 5.9 0.025
5/8/26 - 0900 58.5 64 46.4 52.4 E | 95 0.7 3.1 0.0 419 0.008 13.0 0.00 - - - 0.00 41.6 61.9 5.9 0.011
5/8/26 - 0800 50.2 79 43.7 47.3 SSW | 196 1.2 4.2 0.0 233 0.003 12.4 0.00 - - - 0.00 41.6 54.4 5.9 0.003
5/8/26 - 0700 42.6 93 40.7 42.0 WSW | 244 0.7 2.2 54.7 58 0.000 12.3 0.00 - - - 0.00 41.6 49.7 5.9 0.000
5/8/26 - 0600 42.8 92 40.5 42.0 S | 189 0.8 2.6 60.0 0 0.000 12.3 0.00 - - - 0.00 41.7 49.7 5.0 0.000
5/8/26 - 0500 42.6 93 40.9 42.1 SW | 224 1.2 4.2 60.0 0 0.000 12.3 0.00 - - - 0.00 41.7 49.7 4.0 0.000
5/8/26 - 0400 43.9 93 42.1 43.4 S | 188 1.0 3.5 60.0 0 0.000 12.3 0.00 - - - 0.00 42.8 49.7 3.0 0.000
5/8/26 - 0300 45.5 94 43.9 45.2 SSW | 207 1.1 2.8 60.0 0 0.000 12.3 0.00 - - - 0.00 44.3 49.7 2.0 0.000
5/8/26 - 0200 47.7 92 45.6 47.2 SSW | 205 0.3 2.0 60.0 0 0.000 12.3 0.00 - - - 0.00 46.4 49.7 1.0 0.000
5/8/26 - 0100 50.7 92 48.6 50.3 SSW | 205 1.0 3.5 13.1 0 0.000 12.3 0.00 - - - 0.00 44.9 84.3 6.0 0.213
5/8/26 - 0000 53.9 85 49.4 52.2 SSW | 211 0.9 3.3 0.0 0 0.000 12.3 0.00 - - - 0.00 44.9 84.3 5.8 0.213
5/7/26 - 2300 57.2 81 51.4 54.8 S | 188 2.2 4.2 0.0 0 0.000 12.3 0.00 - - - 0.00 44.9 84.3 5.8 0.213
5/7/26 - 2200 60.4 77 53.0 57.0 S | 185 1.5 4.4 0.0 0 0.000 12.4 0.00 - - - 0.00 44.9 84.3 5.8 0.213
5/7/26 - 2100 66.4 67 54.9 60.2 SSW | 213 1.5 2.8 0.0 2 0.000 12.4 0.00 - - - 0.00 44.9 84.3 5.8 0.213
5/7/26 - 2000 73.5 55 56.4 62.9 SW | 223 3.3 9.9 0.0 84 0.002 12.4 0.00 - - - 0.00 44.9 84.3 5.8 0.213
5/7/26 - 1900 77.4 51 57.8 64.7 WSW | 243 6.1 13.8 0.0 259 0.009 13.0 0.00 - - - 0.00 44.9 84.3 5.8 0.211
5/7/26 - 1800 81.1 46 58.3 65.7 WSW | 239 7.2 15.6 0.0 456 0.015 12.9 0.00 - - - 0.00 44.9 84.3 5.8 0.203
5/7/26 - 1700 82.5 36 52.5 62.5 SW | 218 6.2 12.1 0.0 646 0.021 12.9 0.00 - - - 0.00 44.9 84.3 5.8 0.188
5/7/26 - 1600 82.7 31 48.8 60.6 SW | 236 5.1 12.7 0.0 806 0.025 12.9 0.00 - - - 0.00 44.9 84.3 5.8 0.167
5/7/26 - 1500 81.1 37 52.7 62.3 N | 11 4.1 11.8 0.0 914 0.027 12.9 0.00 - - - 0.00 44.9 82.6 5.8 0.142
5/7/26 - 1400 78.4 47 56.4 64.1 NNE | 16 6.0 10.1 0.0 962 0.027 12.9 0.00 - - - 0.00 44.9 80.2 5.8 0.116
5/7/26 - 1300 76.4 56 59.4 65.6 NNE | 31 7.3 12.1 0.0 957 0.026 13.0 0.00 - - - 0.00 44.9 77.8 5.8 0.088
5/7/26 - 1200 72.2 64 59.3 64.7 NNE | 29 5.1 12.1 0.0 886 0.023 12.9 0.00 - - - 0.00 44.9 75.2 5.8 0.062
5/7/26 - 1100 68.0 71 58.4 63.0 N | 9 4.2 10.1 0.0 763 0.018 13.0 0.00 - - - 0.00 44.9 70.5 5.8 0.040
5/7/26 - 1000 62.9 81 56.8 60.4 N | 10 3.1 7.0 0.0 598 0.013 13.0 0.00 - - - 0.00 44.9 65.6 5.8 0.021
5/7/26 - 0900 58.4 89 55.3 57.8 NE | 40 1.6 7.5 0.0 340 0.007 13.1 0.00 - - - 0.00 44.9 60.3 5.8 0.008
5/7/26 - 0800 51.4 97 50.6 51.4 SW | 231 0.4 2.0 37.6 110 0.002 12.5 0.00 - - - 0.00 44.9 56.1 5.8 0.002
5/7/26 - 0700 45.7 97 44.8 45.7 SSW | 198 0.2 1.5 60.0 22 0.000 12.3 0.00 - - - 0.00 44.9 51.8 5.1 0.000
5/7/26 - 0600 46.2 96 45.3 46.2 S | 188 0.5 2.2 60.0 0 0.000 12.3 0.00 - - - 0.00 45.4 51.8 4.1 0.000
5/7/26 - 0500 47.0 96 45.9 47.0 SSW | 192 1.1 3.3 60.0 0 0.000 12.3 0.00 - - - 0.00 46.4 51.8 3.1 0.000
5/7/26 - 0400 48.0 95 46.7 47.9 E | 91 0.3 3.1 60.0 0 0.000 12.3 0.00 - - - 0.00 46.9 51.8 2.1 0.000
5/7/26 - 0300 49.0 94 47.5 48.8 SSW | 206 0.6 2.4 60.0 0 0.000 12.3 0.00 - - - 0.00 48.2 51.8 1.1 0.000
5/7/26 - 0200 50.7 93 48.8 50.4 SW | 219 0.6 2.2 8.2 0 0.000 12.3 0.00 - - - 0.00 49.7 51.8 0.1 0.000
5/7/26 - 0100 53.2 92 50.9 52.8 S | 178 0.8 2.6 0.0 0 0.000 12.3 0.00 - - - 0.00 51.8 79.7 0.0 0.176
5/7/26 - 0000 54.4 88 50.8 53.3 SSW | 200 0.9 2.6 0.0 0 0.000 12.3 0.00 - - - 0.00 53.4 79.7 0.0 0.176
5/6/26 - 2300 58.1 83 52.9 56.1 S | 181 1.2 2.8 0.0 0 0.000 12.3 0.00 - - - 0.00 55.1 79.7 0.0 0.176
5/6/26 - 2200 61.3 76 53.7 57.7 S | 180 2.6 5.5 0.0 0 0.000 12.4 0.00 - - - 0.00 55.1 79.7 0.0 0.176
5/6/26 - 2100 65.5 70 55.3 60.2 SSW | 201 2.0 5.0 0.0 2 0.000 12.4 0.00 - - - 0.00 55.1 79.7 0.0 0.176
5/6/26 - 2000 71.8 58 56.2 62.4 WNW | 286 4.9 11.6 0.0 77 0.002 12.4 0.00 - - - 0.00 55.1 79.7 0.0 0.176
5/6/26 - 1900 76.8 51 57.6 64.4 WNW | 284 6.3 13.4 0.0 253 0.008 13.0 0.00 - - - 0.00 55.1 79.7 0.0 0.174
5/6/26 - 1800 78.8 48 57.6 64.8 NW | 315 4.6 11.0 0.0 446 0.013 12.9 0.00 - - - 0.00 55.1 79.7 0.0 0.166
5/6/26 - 1700 77.1 50 57.2 64.3 N | 349 3.9 8.3 0.0 636 0.018 12.9 0.00 - - - 0.00 55.1 78.7 0.0 0.152
5/6/26 - 1600 75.1 53 57.0 63.8 N | 11 4.5 11.2 0.0 762 0.021 12.9 0.00 - - - 0.00 55.1 76.4 0.0 0.135
5/6/26 - 1500 72.1 56 55.6 62.2 NNE | 32 4.3 10.1 0.0 890 0.023 12.9 0.00 - - - 0.00 55.1 74.6 0.0 0.114
5/6/26 - 1400 69.2 59 54.4 60.6 NNE | 30 5.2 11.8 0.0 945 0.023 13.0 0.00 - - - 0.00 55.1 71.3 0.0 0.091
5/6/26 - 1300 67.4 63 54.2 60.0 NNE | 26 5.3 11.2 0.0 942 0.023 13.0 0.00 - - - 0.00 55.1 69.1 0.0 0.068
5/6/26 - 1200 65.2 66 53.7 59.0 NNE | 21 4.1 12.3 0.0 870 0.020 13.0 0.00 - - - 0.00 55.1 66.9 0.0 0.045
5/6/26 - 1100 62.0 74 53.7 58.0 NNE | 27 3.1 9.0 0.0 566 0.013 13.0 0.00 - - - 0.00 55.1 63.9 0.0 0.025
5/6/26 - 1000 59.2 80 53.1 56.6 N | 356 1.7 5.0 0.0 288 0.007 13.0 0.00 - - - 0.00 55.1 60.8 0.0 0.012
5/6/26 - 0900 57.6 84 52.7 55.7 W | 261 1.9 4.6 0.0 154 0.004 12.8 0.00 - - - 0.00 55.1 58.4 0.0 0.005
5/6/26 - 0800 56.3 86 52.1 54.9 SW | 226 0.9 2.6 0.0 59 0.001 12.4 0.00 - - - 0.00 55.1 56.9 0.0 0.002
5/6/26 - 0700 55.6 87 51.8 54.4 S | 191 0.7 2.4 0.0 10 0.000 12.3 0.00 - - - 0.00 55.1 55.9 0.0 0.000
5/6/26 - 0600 55.4 87 51.7 54.3 SSW | 196 1.1 2.4 0.0 0 0.000 12.3 0.00 - - - 0.00 55.1 55.7 0.0 0.000
5/6/26 - 0500 55.3 87 51.5 54.1 SSW | 201 1.1 2.8 0.0 0 0.000 12.3 0.00 - - - 0.00 55.1 55.4 0.0 0.000
5/6/26 - 0400 55.3 86 51.4 54.0 SSW | 195 1.3 3.1 0.0 0 0.000 12.3 0.00 - - - 0.00 55.1 55.4 0.0 0.000
5/6/26 - 0300 55.2 86 51.2 53.8 SSW | 194 1.6 3.9 0.0 0 0.000 12.3 0.00 - - - 0.00 55.1 55.4 0.0 0.000
5/6/26 - 0200 55.3 86 51.2 53.9 S | 175 1.5 3.9 0.0 0 0.000 12.3 0.00 - - - 0.00 55.1 55.4 0.0 0.000
5/6/26 - 0100 55.5 85 51.1 53.9 S | 188 1.6 4.4 0.0 0 0.000 12.3 0.00 - - - 0.00 47.8 71.6 0.0 0.166
5/6/26 - 0000 55.1 85 50.8 53.5 SSW | 194 1.9 5.5 0.0 0 0.000 12.3 0.00 - - - 0.00 47.8 71.6 0.0 0.166
5/5/26 - 2300 55.5 84 50.7 53.6 S | 190 2.8 6.6 0.0 0 0.000 12.3 0.00 - - - 0.00 47.8 71.6 0.0 0.166
5/5/26 - 2200 57.2 79 50.9 54.4 SSW | 196 4.3 8.8 0.0 0 0.000 12.4 0.00 - - - 0.00 47.8 71.6 0.0 0.166
5/5/26 - 2100 59.0 75 51.0 55.2 SSW | 207 6.4 12.7 0.0 1 0.001 12.4 0.00 - 0.06 0.11 0.00 47.8 71.6 0.0 0.166
5/5/26 - 2000 61.9 70 52.2 57.0 SSW | 210 7.7 14.0 0.0 40 0.002 12.4 0.00 - 0.06 0.11 0.00 47.8 71.6 0.0 0.165
5/5/26 - 1900 65.1 66 53.3 58.8 SW | 216 8.0 15.8 0.0 159 0.005 13.1 0.00 - 0.06 0.11 0.00 47.8 71.6 0.0 0.163
5/5/26 - 1800 68.3 60 53.7 59.9 SW | 216 7.4 14.5 0.0 298 0.009 13.0 0.00 - 0.06 0.11 0.00 47.8 71.6 0.0 0.158
5/5/26 - 1700 70.0 56 53.7 60.4 SSW | 213 6.8 14.7 0.0 611 0.016 12.9 0.00 - 0.06 0.11 0.00 47.8 71.6 0.0 0.148
5/5/26 - 1600 69.6 56 53.3 60.0 SSW | 210 5.9 12.7 0.0 616 0.016 13.0 0.00 - 0.06 0.11 0.00 47.8 70.5 0.0 0.132
5/5/26 - 1500 68.8 56 52.7 59.4 WSW | 241 3.6 11.2 0.0 869 0.022 12.9 0.00 - 0.06 0.11 0.00 47.8 70.5 0.0 0.116
5/5/26 - 1400 66.3 58 51.0 57.7 NNE | 26 4.6 11.2 0.0 900 0.022 13.0 0.00 - 0.06 0.11 0.00 47.8 67.3 0.0 0.094
5/5/26 - 1300 63.6 60 49.7 56.1 N | 8 3.7 10.1 0.0 934 0.022 13.0 0.00 - 0.10 0.11 0.00 47.8 65.1 0.0 0.073
5/5/26 - 1200 61.2 67 50.2 55.5 N | 352 3.4 9.0 0.0 861 0.019 13.0 0.00 - 0.11 0.11 0.00 47.8 62.5 0.0 0.051
5/5/26 - 1100 57.8 76 50.3 54.3 NE | 40 2.8 8.6 0.0 736 0.015 13.0 0.00 - 0.11 0.11 0.00 47.8 60.0 0.0 0.032
5/5/26 - 1000 55.5 79 49.0 52.6 ESE | 102 1.9 5.3 0.0 465 0.009 13.0 0.00 - 0.11 0.11 0.00 47.8 56.4 0.0 0.016
5/5/26 - 0900 52.3 85 47.8 50.6 SSW | 210 1.7 5.5 0.0 264 0.005 13.1 0.00 - 0.11 0.11 0.00 47.8 54.8 0.0 0.007
5/5/26 - 0800 50.0 91 47.5 49.3 SSW | 212 2.1 5.0 0.0 63 0.001 12.5 0.00 - 0.11 0.11 0.00 47.8 50.9 0.0 0.002
5/5/26 - 0700 48.7 94 47.2 48.5 SSW | 192 2.1 4.6 0.0 14 0.000 12.3 0.00 - 0.11 0.11 0.00 47.8 50.9 0.0 0.001
5/5/26 - 0600 48.1 95 46.9 48.1 S | 174 1.6 3.9 0.0 0 0.000 12.3 0.00 - 0.11 0.11 0.00 47.8 50.9 0.0 0.001
5/5/26 - 0500 48.5 95 47.1 48.4 S | 183 1.5 4.2 0.0 0 0.000 12.3 0.00 - 0.11 0.11 0.00 48.1 50.9 0.0 0.001
5/5/26 - 0400 49.3 93 47.4 48.9 SSE | 164 1.6 4.2 0.0 0 0.000 12.3 0.00 - 0.11 0.11 0.00 49.1 50.9 0.0 0.001
5/5/26 - 0300 50.3 88 47.1 49.3 WSW | 244 2.3 6.1 0.0 0 0.000 12.3 0.00 - 0.11 0.11 0.00 49.7 50.9 0.0 0.000
5/5/26 - 0200 50.5 91 47.9 49.8 SW | 233 3.1 6.1 0.0 0 0.000 12.3 0.00 - 0.11 0.11 0.00 50.2 50.9 0.0 0.000
5/5/26 - 0100 51.0 87 47.2 49.6 W | 271 3.8 8.6 0.0 0 0.000 12.3 0.00 - 0.11 0.11 0.11 50.7 58.1 3.1 0.056
5/5/26 - 0000 51.1 86 47.1 49.6 W | 275 5.3 16.2 0.0 0 0.000 12.3 0.00 - 0.11 0.11 0.11 50.7 58.1 3.1 0.055
5/4/26 - 2300 51.4 87 47.7 50.1 W | 278 5.2 12.9 23.2 0 0.000 12.3 0.00 - 0.11 0.11 0.11 50.7 58.1 3.1 0.055
5/4/26 - 2200 52.0 89 48.7 51.0 WNW | 283 5.5 13.6 35.7 0 0.000 12.3 0.06 0.35 0.11 0.11 0.11 50.7 58.1 2.7 0.054
5/4/26 - 2100 53.5 87 49.6 52.1 W | 278 5.0 12.3 0.0 1 0.000 12.3 0.00 - 0.05 - 0.05 50.7 58.1 2.1 0.054
5/4/26 - 2000 54.2 85 50.0 52.7 SW | 231 5.5 11.8 0.0 17 0.001 12.4 0.00 - 0.05 - 0.05 50.7 58.1 2.1 0.054
5/4/26 - 1900 54.9 85 50.5 53.3 SSW | 210 5.9 11.0 0.0 21 0.001 12.4 0.00 - 0.05 - 0.05 50.7 58.1 2.1 0.052
5/4/26 - 1800 55.7 85 51.2 54.0 SSW | 207 5.1 9.4 0.7 61 0.002 12.8 0.00 - 0.05 - 0.05 50.7 58.1 2.1 0.051
5/4/26 - 1700 56.8 82 51.3 54.6 SSW | 199 5.2 9.2 0.0 102 0.003 13.2 0.00 - 0.05 - 0.05 50.7 58.1 2.1 0.049
5/4/26 - 1600 57.4 81 51.7 55.0 S | 189 4.6 9.6 0.0 276 0.007 13.2 0.00 - 0.05 - 0.05 50.7 58.1 2.1 0.046
5/4/26 - 1500 55.2 89 52.0 54.4 SSW | 206 3.9 8.3 43.8 277 0.006 13.2 0.00 - 0.05 - 0.05 50.7 57.9 2.1 0.039
5/4/26 - 1400 54.6 88 51.2 53.6 N | 353 2.2 6.6 60.0 120 0.003 13.2 0.04 0.06 0.05 - 0.05 50.7 57.9 1.4 0.033
5/4/26 - 1300 55.9 79 49.5 53.1 N | 356 5.0 10.5 21.5 156 0.004 13.2 0.01 0.01 0.01 - 0.01 50.7 57.9 0.4 0.030
5/4/26 - 1200 56.7 74 48.7 52.9 NNW | 340 4.2 8.6 0.0 275 0.007 13.1 0.00 - - - 0.00 50.7 57.9 0.0 0.026
5/4/26 - 1100 56.1 73 47.6 52.1 N | 351 3.3 7.2 0.0 222 0.006 13.2 0.00 - - - 0.00 50.7 57.3 0.0 0.019
5/4/26 - 1000 55.8 74 47.6 52.0 WNW | 302 3.3 7.9 0.0 311 0.007 13.1 0.00 - - - 0.00 50.7 57.3 0.0 0.013
5/4/26 - 0900 53.6 79 47.2 50.8 WSW | 237 2.3 6.1 0.0 238 0.005 13.1 0.00 - - - 0.00 50.7 55.1 0.0 0.007
5/4/26 - 0800 51.6 86 47.6 50.2 SSW | 202 2.5 6.1 0.0 77 0.002 12.4 0.00 - - - 0.00 50.7 53.1 0.0 0.002
5/4/26 - 0700 51.5 86 47.4 49.9 W | 266 3.9 8.8 0.0 14 0.000 12.3 0.00 - - - 0.00 50.7 53.1 0.0 0.000
5/4/26 - 0600 52.5 83 47.6 50.6 WSW | 245 2.0 8.1 0.0 0 0.000 12.3 0.00 - - - 0.00 52.3 53.1 0.0 0.000
5/4/26 - 0500 52.6 83 47.7 50.6 SW | 222 1.0 3.7 0.0 0 0.000 12.3 0.00 - - - 0.00 52.5 53.1 0.0 0.000
5/4/26 - 0400 52.7 82 47.4 50.5 SW | 232 1.7 3.7 0.0 0 0.000 12.3 0.00 - - - 0.00 52.5 53.1 0.0 0.000
5/4/26 - 0300 53.0 81 47.4 50.6 W | 272 1.5 3.5 0.0 0 0.000 12.3 0.00 - - - 0.00 52.5 53.1 0.0 0.000
5/4/26 - 0200 52.7 83 47.8 50.8 WNW | 293 1.9 5.0 0.0 0 0.000 12.3 0.00 - - - 0.00 52.5 53.0 0.0 0.000
5/4/26 - 0100 53.0 83 48.0 51.0 NW | 325 3.7 9.0 0.0 0 0.000 12.3 0.00 - - - 0.00 47.2 67.4 0.0 0.140
5/4/26 - 0000 54.2 78 47.4 51.2 W | 260 3.0 5.5 0.0 0 0.000 12.3 0.00 - - - 0.00 47.2 67.4 0.0 0.139
5/3/26 - 2300 54.4 74 46.4 50.7 SW | 227 2.6 5.9 0.0 0 0.000 12.3 0.00 - - - 0.00 47.2 67.4 0.0 0.139
5/3/26 - 2200 54.5 73 46.1 50.6 SW | 228 3.6 7.9 0.0 0 0.000 12.3 0.00 - - - 0.00 47.2 67.4 0.0 0.139
5/3/26 - 2100 54.9 74 46.8 51.1 SW | 233 5.0 10.5 0.0 1 0.001 12.4 0.00 - - - 0.00 47.2 67.4 0.0 0.138
5/3/26 - 2000 56.6 72 47.8 52.4 SW | 235 5.5 12.1 0.0 12 0.002 12.4 0.00 - - - 0.00 47.2 67.4 0.0 0.138
5/3/26 - 1900 58.9 66 47.5 53.1 SSW | 212 7.9 16.0 0.0 80 0.004 12.7 0.00 - - - 0.00 47.2 67.4 0.0 0.136
5/3/26 - 1800 62.5 60 48.3 54.8 SSW | 204 8.5 15.8 0.0 222 0.008 13.1 0.00 - - - 0.00 47.2 67.4 0.0 0.132
5/3/26 - 1700 65.3 56 49.4 56.4 SSW | 210 8.0 14.7 0.0 590 0.015 13.0 0.00 - - - 0.00 47.2 67.4 0.0 0.124
5/3/26 - 1600 66.2 58 51.2 57.8 SW | 228 6.9 14.2 0.0 771 0.019 13.0 0.00 - - - 0.00 47.2 67.4 0.0 0.109
5/3/26 - 1500 64.2 62 50.8 56.9 SW | 231 5.5 12.1 0.0 714 0.017 13.0 0.00 - - - 0.00 47.2 66.3 0.0 0.091
5/3/26 - 1400 63.8 63 51.0 56.9 SW | 215 6.4 15.6 0.0 778 0.018 13.0 0.00 - - - 0.00 47.2 65.6 0.0 0.074
Max 87.5 97 59.4 65.7 - 8.5 18.0 60.0 969 0.028 13.2 0.06 0.35 0.11 0.11 0.11 55.1 88.2 6.0 0.234
Avg 60.8 71 49.8 54.6 - 3.2 7.6 5.3 278 0.007 12.6 0.00 0.14 0.08 0.11 - - - - -
Min 42.6 27 40.5 42.0 - 0.2 1.5 0.0 0 0.000 12.3 0.00 0.01 0.01 0.11 0.00 41.6 49.7 0.0 0.000
Total - - - - - - - - - 1.247 - 0.11 - - - - - - - -